createdAt,value
2019-05-03T00:02:28.795Z,23.23
2019-05-03T00:05:09.706Z,24.50
2019-05-03T00:07:42.096Z,20.60
2019-05-03T00:10:14.006Z,24.63
2019-05-03T00:12:45.871Z,25.70
2019-05-03T00:15:24.269Z,22.23
2019-05-03T00:17:56.163Z,26.37
2019-05-03T00:20:28.154Z,22.97
2019-05-03T00:23:00.013Z,21.97
2019-05-03T00:25:32.659Z,27.67
2019-05-03T00:28:04.647Z,15.63
2019-05-03T00:30:36.563Z,10.43
2019-05-03T00:33:08.355Z,9.13
2019-05-03T00:36:05.028Z,6.20
2019-05-03T00:38:37.118Z,9.23
2019-05-03T00:41:08.973Z,5.90
2019-05-03T00:43:42.349Z,5.37
2019-05-03T00:46:14.354Z,5.30
2019-05-03T00:48:46.224Z,5.67
2019-05-03T00:51:18.074Z,2.97
2019-05-03T00:53:49.930Z,6.90
2019-05-03T00:56:21.792Z,6.10
2019-05-03T00:58:57.449Z,4.83
2019-05-03T01:01:29.322Z,2.80
2019-05-03T01:04:02.357Z,3.53
2019-05-03T01:06:34.368Z,4.83
2019-05-03T01:09:11.749Z,2.70
2019-05-03T01:11:43.358Z,4.83
2019-05-03T01:14:15.205Z,4.73
2019-05-03T01:16:47.059Z,7.80
2019-05-03T01:19:19.016Z,4.77
2019-05-03T01:21:51.546Z,7.00
2019-05-03T01:24:23.496Z,9.40
2019-05-03T01:26:55.359Z,6.40
2019-05-03T01:29:27.219Z,7.23
2019-05-03T01:32:02.126Z,7.47
2019-05-03T01:34:34.026Z,8.33
2019-05-03T01:37:05.890Z,9.60
2019-05-03T01:39:37.752Z,13.07
2019-05-03T01:42:09.605Z,6.97
2019-05-03T01:44:42.717Z,5.60
2019-05-03T01:47:21.844Z,6.10
2019-05-03T01:50:07.171Z,3.70
2019-05-03T01:52:41.999Z,7.53
2019-05-03T01:55:16.007Z,4.97
2019-05-03T01:57:47.970Z,5.77
2019-05-03T02:00:25.226Z,4.97
2019-05-03T02:03:12.378Z,3.57
2019-05-03T02:05:47.005Z,2.83
2019-05-03T02:08:18.850Z,4.77
2019-05-03T02:10:51.743Z,6.10
2019-05-03T02:13:23.765Z,6.97
2019-05-03T02:15:55.649Z,5.30
2019-05-03T02:18:27.436Z,13.13
2019-05-03T02:21:01.671Z,7.00
2019-05-03T02:23:33.922Z,7.00
2019-05-03T02:26:07.102Z,8.50
2019-05-03T02:28:38.956Z,7.00
2019-05-03T02:31:13.417Z,8.13
2019-05-03T02:33:44.363Z,10.20
2019-05-03T02:36:16.221Z,10.50
2019-05-03T02:38:48.017Z,7.27
2019-05-03T02:41:22.524Z,6.40
2019-05-03T02:43:56.091Z,9.67
2019-05-03T02:46:45.274Z,9.70
2019-05-03T02:49:25.748Z,2.87
2019-05-03T02:51:58.824Z,3.40
2019-05-03T02:54:30.610Z,2.83
2019-05-03T02:57:02.398Z,5.13
2019-05-03T02:59:35.294Z,3.77
2019-05-03T03:02:07.143Z,3.63
2019-05-03T03:04:38.998Z,3.07
2019-05-03T03:07:10.900Z,7.33
2019-05-03T03:09:45.132Z,5.43
2019-05-03T03:12:16.816Z,5.23
2019-05-03T03:14:48.921Z,2.53
2019-05-03T03:17:24.903Z,4.67
2019-05-03T03:19:56.773Z,3.37
2019-05-03T03:22:30.222Z,4.37
2019-05-03T03:25:05.392Z,5.60
2019-05-03T03:27:40.241Z,6.23
2019-05-03T03:30:31.369Z,4.50
2019-05-03T03:33:08.648Z,4.00
2019-05-03T03:35:40.741Z,6.77
2019-05-03T03:38:15.346Z,5.77
2019-05-03T03:40:46.347Z,5.63
2019-05-03T03:43:19.672Z,3.60
2019-05-03T03:45:51.919Z,3.27
2019-05-03T03:48:26.589Z,6.47
2019-05-03T03:50:57.829Z,19.70
2019-05-03T03:53:31.247Z,40.80
2019-05-03T03:56:05.616Z,18.00
2019-05-03T03:58:38.316Z,11.40
2019-05-03T04:01:10.172Z,2.30
2019-05-03T04:03:45.775Z,5.10
2019-05-03T04:06:16.844Z,2.00
2019-05-03T04:08:48.690Z,3.30
2019-05-03T04:11:20.544Z,8.17
2019-05-03T04:13:52.396Z,5.67
2019-05-03T04:16:46.396Z,7.37
2019-05-03T04:19:25.128Z,8.17
2019-05-03T04:21:56.614Z,2.43
2019-05-03T04:24:29.246Z,7.17
2019-05-03T04:27:18.729Z,9.77
2019-05-03T04:29:40.938Z,26.60
2019-05-03T04:32:15.410Z,12.97
2019-05-03T04:34:46.275Z,15.93
2019-05-03T04:37:18.157Z,19.60
2019-05-03T04:39:49.941Z,10.43
2019-05-03T04:42:21.798Z,8.37
2019-05-03T04:44:56.301Z,6.00
2019-05-03T04:47:27.191Z,12.33
2019-05-03T04:49:59.045Z,5.37
2019-05-03T04:52:30.917Z,9.23
2019-05-03T04:55:02.769Z,6.63
2019-05-03T04:57:40.484Z,4.93
2019-05-03T05:00:11.452Z,7.03
2019-05-03T05:02:45.743Z,3.83
2019-05-03T05:05:17.191Z,8.30
2019-05-03T05:07:48.983Z,5.30
2019-05-03T05:10:20.840Z,5.87
2019-05-03T05:12:54.964Z,7.73
2019-05-03T05:15:26.751Z,3.50
2019-05-03T05:18:26.181Z,7.97
2019-05-03T05:21:19.268Z,9.73
2019-05-03T05:23:59.482Z,10.30
2019-05-03T05:26:41.225Z,10.53
2019-05-03T05:29:14.683Z,5.80
2019-05-03T05:31:46.557Z,5.97
2019-05-03T05:34:18.359Z,4.53
2019-05-03T05:36:50.196Z,9.97
2019-05-03T05:39:22.009Z,11.20
2019-05-03T05:41:55.431Z,6.17
2019-05-03T05:44:27.364Z,11.43
2019-05-03T05:47:16.648Z,5.00
2019-05-03T05:49:55.165Z,8.60
2019-05-03T05:52:27.128Z,6.87
2019-05-03T05:55:35.831Z,6.70
2019-05-03T05:58:12.386Z,8.60
2019-05-03T06:00:59.146Z,7.70
2019-05-03T06:03:30.925Z,4.67
2019-05-03T06:06:05.451Z,8.03
2019-05-03T06:09:11.172Z,11.40
2019-05-03T06:11:47.897Z,13.73
2019-05-03T06:14:29.426Z,5.57
2019-05-03T06:17:06.485Z,10.77
2019-05-03T06:19:42.243Z,6.33
2019-05-03T06:22:30.644Z,4.50
2019-05-03T06:25:11.651Z,13.63
2019-05-03T06:27:44.964Z,4.77
2019-05-03T06:30:41.620Z,10.50
2019-05-03T06:33:14.370Z,4.97
2019-05-03T06:35:46.236Z,6.77
2019-05-03T06:38:18.086Z,10.27
2019-05-03T06:40:50.589Z,9.43
2019-05-03T06:43:24.283Z,6.33
2019-05-03T06:45:57.662Z,8.83
2019-05-03T06:48:31.970Z,7.80
2019-05-03T06:51:08.755Z,9.30
2019-05-03T06:53:37.210Z,8.57
2019-05-03T06:56:09.068Z,7.70
2019-05-03T06:58:41.187Z,9.70
2019-05-03T07:01:20.755Z,9.73
2019-05-03T07:04:15.261Z,6.50
2019-05-03T07:07:05.313Z,14.20
2019-05-03T07:09:51.304Z,16.73
2019-05-03T07:12:24.908Z,13.33
2019-05-03T07:14:57.924Z,7.50
2019-05-03T07:17:30.069Z,8.93
2019-05-03T07:20:04.560Z,5.67
2019-05-03T07:22:37.295Z,9.17
2019-05-03T07:25:09.213Z,13.63
2019-05-03T07:27:41.088Z,8.93
2019-05-03T07:30:13.059Z,6.33
2019-05-03T07:32:46.768Z,7.40
2019-05-03T07:35:18.632Z,12.37
2019-05-03T07:37:50.497Z,7.97
2019-05-03T07:40:22.494Z,13.20
2019-05-03T07:42:55.404Z,9.53
2019-05-03T07:45:27.512Z,11.03
2019-05-03T07:48:00.369Z,9.13
2019-05-03T07:50:33.265Z,9.70
2019-05-03T07:53:05.817Z,13.53
2019-05-03T07:55:55.060Z,5.80
2019-05-03T07:58:27.738Z,6.60
2019-05-03T08:01:08.800Z,9.67
2019-05-03T08:03:35.543Z,8.60
2019-05-03T08:06:07.636Z,10.83
2019-05-03T08:08:39.628Z,12.03
2019-05-03T08:11:11.506Z,15.43
2019-05-03T08:13:44.630Z,6.27
2019-05-03T08:16:16.544Z,9.33
2019-05-03T08:18:48.424Z,11.70
2019-05-03T08:21:21.644Z,8.50
2019-05-03T08:23:55.491Z,7.03
2019-05-03T08:26:27.239Z,13.53
2019-05-03T08:29:13.359Z,7.87
2019-05-03T08:32:01.422Z,11.20
2019-05-03T08:34:50.205Z,10.10
2019-05-03T08:37:27.972Z,7.80
2019-05-03T08:39:59.666Z,6.90
2019-05-03T08:42:31.570Z,8.53
2019-05-03T08:45:04.558Z,6.30
2019-05-03T08:47:37.061Z,5.73
2019-05-03T08:50:10.354Z,11.53
2019-05-03T08:52:42.657Z,8.53
2019-05-03T08:55:16.029Z,11.17
2019-05-03T08:57:49.010Z,6.27
2019-05-03T09:00:24.796Z,8.80
2019-05-03T09:02:56.237Z,9.57
2019-05-03T09:05:28.174Z,33.87
2019-05-03T09:08:00.078Z,21.63
2019-05-03T09:10:50.891Z,10.47
2019-05-03T09:13:24.970Z,6.80
2019-05-03T09:15:56.674Z,12.53
2019-05-03T09:18:28.623Z,15.50
2019-05-03T09:21:00.913Z,10.87
2019-05-03T09:23:32.914Z,13.13
2019-05-03T09:26:05.324Z,6.23
2019-05-03T09:28:38.062Z,42.23
2019-05-03T09:31:09.961Z,10.87
2019-05-03T09:33:41.872Z,7.50
2019-05-03T09:36:14.696Z,5.50
2019-05-03T09:38:46.791Z,6.07
2019-05-03T09:41:18.606Z,9.70
2019-05-03T09:43:50.578Z,5.53
2019-05-03T09:46:24.287Z,10.97
2019-05-03T09:49:09.448Z,7.10
2019-05-03T09:51:29.889Z,9.17
2019-05-03T09:54:08.592Z,5.87
2019-05-03T09:56:59.629Z,6.07
2019-05-03T09:59:32.708Z,6.47
2019-05-03T10:02:05.103Z,13.47
2019-05-03T10:04:37.113Z,8.77
2019-05-03T10:07:09.026Z,10.33
2019-05-03T10:09:40.918Z,7.93
2019-05-03T10:12:18.350Z,7.67
2019-05-03T10:14:51.118Z,5.87
2019-05-03T10:17:45.972Z,3.67
2019-05-03T10:20:19.033Z,8.47
2019-05-03T10:22:51.659Z,4.93
2019-05-03T10:25:24.784Z,3.77
2019-05-03T10:27:57.016Z,6.73
2019-05-03T10:30:29.031Z,2.83
2019-05-03T10:33:15.823Z,7.83
2019-05-03T10:35:47.743Z,10.27
2019-05-03T10:38:20.654Z,10.70
2019-05-03T10:40:54.875Z,2.80
2019-05-03T10:43:26.147Z,8.30
2019-05-03T10:45:58.023Z,17.77
2019-05-03T10:48:29.937Z,5.93
2019-05-03T10:51:01.984Z,3.37
2019-05-03T10:53:42.945Z,7.80
2019-05-03T10:56:22.818Z,4.73
2019-05-03T10:58:59.888Z,5.47
2019-05-03T11:02:01.684Z,13.47
2019-05-03T11:04:35.634Z,5.00
2019-05-03T11:07:07.907Z,15.47
2019-05-03T11:09:48.551Z,3.47
2019-05-03T11:12:15.220Z,9.70
2019-05-03T11:14:47.165Z,6.90
2019-05-03T11:17:19.543Z,5.57
2019-05-03T11:19:51.621Z,6.27
2019-05-03T11:22:25.250Z,4.27
2019-05-03T11:24:57.559Z,4.13
2019-05-03T11:27:38.571Z,3.07
2019-05-03T11:30:16.253Z,8.23
2019-05-03T11:32:58.648Z,8.73
2019-05-03T11:35:56.618Z,14.70
2019-05-03T11:38:35.129Z,23.13
2019-05-03T11:41:08.052Z,11.60
2019-05-03T11:43:40.167Z,9.83
2019-05-03T11:46:12.029Z,7.87
2019-05-03T11:48:45.505Z,9.10
2019-05-03T11:51:17.552Z,13.77
2019-05-03T11:53:50.418Z,7.97
2019-05-03T11:56:22.432Z,5.27
2019-05-03T11:58:54.997Z,6.90
2019-05-03T12:01:37.819Z,6.03
2019-05-03T12:04:09.788Z,6.73
2019-05-03T12:06:41.660Z,4.60
2019-05-03T12:09:15.507Z,10.33
2019-05-03T12:11:47.409Z,7.73
2019-05-03T12:14:19.359Z,9.27
2019-05-03T12:17:18.486Z,11.33
2019-05-03T12:19:41.744Z,11.13
2019-05-03T12:22:16.645Z,15.07
2019-05-03T12:24:48.583Z,4.73
2019-05-03T12:27:20.866Z,4.73
2019-05-03T12:29:52.965Z,6.57
2019-05-03T12:32:25.178Z,3.40
2019-05-03T12:34:57.123Z,4.03
2019-05-03T12:37:29.037Z,5.63
2019-05-03T12:40:00.890Z,7.10
2019-05-03T12:42:35.447Z,4.53
2019-05-03T12:45:07.356Z,13.07
2019-05-03T12:47:41.199Z,24.13
2019-05-03T12:50:15.697Z,5.37
2019-05-03T12:52:50.364Z,8.67
2019-05-03T12:55:22.036Z,9.37
2019-05-03T12:57:55.515Z,5.13
2019-05-03T13:00:39.093Z,5.93
2019-05-03T13:03:15.261Z,11.20
2019-05-03T13:05:47.383Z,23.17
2019-05-03T13:08:39.874Z,5.77
2019-05-03T13:11:12.156Z,4.87
2019-05-03T13:13:45.206Z,10.30
2019-05-03T13:16:19.972Z,5.50
2019-05-03T13:18:55.151Z,5.50
2019-05-03T13:21:27.424Z,11.00
2019-05-03T13:23:59.281Z,10.33
2019-05-03T13:26:31.152Z,11.17
2019-05-03T13:29:03.095Z,9.93
2019-05-03T13:31:35.279Z,7.23
2019-05-03T13:34:07.143Z,3.20
2019-05-03T13:36:38.953Z,5.27
2019-05-03T13:39:14.716Z,9.67
2019-05-03T13:41:45.735Z,8.10
2019-05-03T13:44:17.694Z,10.33
2019-05-03T13:46:49.540Z,5.50
2019-05-03T13:49:21.335Z,5.20
2019-05-03T13:51:54.858Z,5.37
2019-05-03T13:54:26.671Z,12.17
2019-05-03T13:56:58.541Z,6.70
2019-05-03T13:59:30.382Z,5.70
2019-05-03T14:02:12.561Z,9.07
2019-05-03T14:04:49.149Z,3.83
2019-05-03T14:07:12.442Z,9.17
2019-05-03T14:09:45.268Z,5.50
2019-05-03T14:12:17.315Z,8.03
2019-05-03T14:14:56.402Z,4.03
2019-05-03T14:17:29.527Z,6.53
2019-05-03T14:20:20.303Z,11.93
2019-05-03T14:22:52.784Z,10.43
2019-05-03T14:25:24.813Z,4.20
2019-05-03T14:27:59.664Z,10.20
2019-05-03T14:30:31.273Z,9.20
2019-05-03T14:33:04.916Z,5.43
2019-05-03T14:35:37.159Z,8.63
2019-05-03T14:38:08.961Z,8.00
2019-05-03T14:40:40.750Z,6.77
2019-05-03T14:43:12.612Z,6.20
2019-05-03T14:45:44.462Z,9.90
2019-05-03T14:48:16.352Z,16.00
2019-05-03T14:50:48.206Z,8.50
2019-05-03T14:53:20.077Z,6.00
2019-05-03T14:55:57.795Z,4.60
2019-05-03T14:58:48.162Z,9.93
2019-05-03T15:01:30.003Z,7.63
2019-05-03T15:04:01.854Z,8.50
2019-05-03T15:06:35.410Z,6.63
2019-05-03T15:09:08.048Z,11.20
2019-05-03T15:11:40.118Z,18.10
2019-05-03T15:14:11.977Z,3.90
2019-05-03T15:16:45.033Z,28.53
2019-05-03T15:19:17.042Z,11.10
2019-05-03T15:21:48.920Z,8.37
2019-05-03T15:24:20.767Z,3.43
2019-05-03T15:26:52.620Z,8.47
2019-05-03T15:29:25.491Z,10.27
2019-05-03T15:31:57.370Z,5.77
2019-05-03T15:34:29.231Z,11.20
2019-05-03T15:37:01.031Z,34.70
2019-05-03T15:39:32.903Z,9.57
2019-05-03T15:42:05.415Z,11.10
2019-05-03T15:44:59.096Z,11.47
2019-05-03T15:47:41.724Z,7.93
2019-05-03T15:50:15.467Z,10.20
2019-05-03T15:52:48.814Z,9.10
2019-05-03T15:55:20.679Z,13.63
2019-05-03T15:57:52.535Z,16.13
2019-05-03T16:00:24.530Z,14.00
2019-05-03T16:03:07.462Z,13.03
2019-05-03T16:05:29.989Z,6.80
2019-05-03T16:08:01.864Z,9.53
2019-05-03T16:10:33.849Z,11.97
2019-05-03T16:13:05.882Z,34.33
2019-05-03T16:15:37.775Z,94.90
2019-05-03T16:18:09.649Z,42.43
2019-05-03T16:20:41.505Z,15.27
2019-05-03T16:23:15.260Z,11.73
2019-05-03T16:25:46.864Z,21.50
2019-05-03T16:28:34.375Z,12.53
2019-05-03T16:31:09.291Z,13.60
2019-05-03T16:33:41.179Z,21.53
2019-05-03T16:36:14.751Z,17.97
2019-05-03T16:38:46.717Z,14.23
2019-05-03T16:41:18.577Z,42.37
2019-05-03T16:43:50.444Z,59.30
2019-05-03T16:46:22.330Z,51.30
2019-05-03T16:48:54.200Z,16.13
2019-05-03T16:51:26.471Z,15.37
2019-05-03T16:53:58.350Z,13.40
2019-05-03T16:56:30.239Z,30.77
2019-05-03T16:59:02.346Z,13.47
2019-05-03T17:01:35.187Z,93.33
2019-05-03T17:04:34.546Z,18.67
2019-05-03T17:07:24.662Z,25.37
2019-05-03T17:10:00.876Z,30.63
2019-05-03T17:12:34.798Z,15.27
2019-05-03T17:15:07.458Z,17.10
2019-05-03T17:17:39.347Z,15.00
2019-05-03T17:20:11.349Z,14.93
2019-05-03T17:22:45.011Z,43.07
2019-05-03T17:25:17.005Z,22.57
2019-05-03T17:27:48.858Z,17.97
2019-05-03T17:30:20.878Z,15.10
2019-05-03T17:32:52.804Z,37.67
2019-05-03T17:35:25.174Z,12.40
2019-05-03T17:37:57.167Z,17.27
2019-05-03T17:40:40.590Z,10.40
2019-05-03T17:43:18.258Z,7.30
2019-05-03T17:45:52.610Z,10.10
2019-05-03T17:48:24.512Z,12.93
2019-05-03T17:50:56.371Z,13.37
2019-05-03T17:53:47.172Z,14.50
2019-05-03T17:56:36.610Z,11.00
2019-05-03T17:59:12.443Z,18.13
2019-05-03T18:02:04.215Z,12.67
2019-05-03T18:04:44.275Z,12.57
2019-05-03T18:07:24.346Z,13.00
2019-05-03T18:09:57.805Z,16.97
2019-05-03T18:12:31.014Z,19.17
2019-05-03T18:15:02.873Z,11.00
2019-05-03T18:17:35.228Z,19.43
2019-05-03T18:20:07.346Z,19.83
2019-05-03T18:22:39.248Z,13.07
2019-05-03T18:25:11.165Z,12.13
2019-05-03T18:27:44.612Z,10.53
2019-05-03T18:30:16.707Z,17.53
2019-05-03T18:32:48.570Z,16.23
2019-05-03T18:35:20.375Z,19.17
2019-05-03T18:37:58.791Z,27.07
2019-05-03T18:40:32.855Z,13.60
2019-05-03T18:43:09.817Z,9.27
2019-05-03T18:46:18.510Z,17.13
2019-05-03T18:48:50.734Z,17.87
2019-05-03T18:51:22.614Z,16.27
2019-05-03T18:53:54.596Z,14.77
2019-05-03T18:56:26.444Z,18.07
2019-05-03T18:58:58.335Z,18.10
2019-05-03T19:01:30.198Z,23.63
2019-05-03T19:04:10.999Z,26.00
2019-05-03T19:06:42.870Z,37.73
2019-05-03T19:09:27.266Z,34.93
2019-05-03T19:12:06.616Z,31.30
2019-05-03T19:14:38.981Z,61.50
2019-05-03T19:17:28.083Z,60.13
2019-05-03T19:20:00.226Z,30.73
2019-05-03T19:22:34.312Z,66.57
2019-05-03T19:25:06.133Z,72.20
2019-05-03T19:27:38.047Z,92.50
2019-05-03T19:30:11.459Z,108.07
2019-05-03T19:32:45.037Z,146.33
2019-05-03T19:35:17.107Z,144.67
2019-05-03T19:37:48.979Z,118.27
2019-05-03T19:40:20.868Z,58.87
2019-05-03T19:42:52.726Z,55.53
2019-05-03T19:45:24.934Z,42.27
2019-05-03T19:47:56.863Z,38.37
2019-05-03T19:50:28.730Z,60.47
2019-05-03T19:53:15.972Z,67.17
2019-05-03T19:55:50.559Z,64.27
2019-05-03T19:58:21.451Z,32.13
2019-05-03T20:01:12.229Z,31.80
2019-05-03T20:03:50.888Z,22.97
2019-05-03T20:06:37.887Z,22.77
2019-05-03T20:09:15.152Z,19.63
2019-05-03T20:11:47.109Z,19.33
2019-05-03T20:14:18.969Z,15.87
2019-05-03T20:16:50.784Z,17.47
2019-05-03T20:19:22.693Z,19.37
2019-05-03T20:21:56.759Z,21.47
2019-05-03T20:24:28.078Z,74.00
2019-05-03T20:26:59.888Z,208.47
2019-05-03T20:29:31.757Z,167.67
2019-05-03T20:32:05.802Z,129.07
2019-05-03T20:34:37.437Z,108.07
2019-05-03T20:37:09.319Z,117.57
2019-05-03T20:39:41.109Z,83.60
2019-05-03T20:42:15.518Z,64.37
2019-05-03T20:44:59.853Z,66.83
2019-05-03T20:47:35.143Z,48.43
2019-05-03T20:50:16.737Z,42.70
2019-05-03T20:52:48.548Z,23.37
2019-05-03T20:55:20.439Z,18.97
2019-05-03T20:57:52.309Z,24.10
2019-05-03T21:00:25.734Z,30.70
2019-05-03T21:02:58.969Z,40.43
2019-05-03T21:05:34.479Z,79.87
2019-05-03T21:08:05.605Z,79.93
2019-05-03T21:10:37.585Z,79.07
2019-05-03T21:13:09.446Z,59.77
2019-05-03T21:15:47.547Z,52.30
2019-05-03T21:18:36.432Z,37.33
2019-05-03T21:21:21.899Z,36.93
2019-05-03T21:23:57.273Z,34.83
2019-05-03T21:26:29.069Z,24.47
2019-05-03T21:29:00.916Z,18.77
2019-05-03T21:31:32.799Z,16.37
2019-05-03T21:34:05.665Z,17.37
2019-05-03T21:36:38.597Z,14.00
2019-05-03T21:39:10.460Z,13.77
2019-05-03T21:41:42.312Z,11.37
2019-05-03T21:44:30.803Z,21.20
2019-05-03T21:47:15.274Z,12.10
2019-05-03T21:49:47.154Z,16.37
2019-05-03T21:52:19.077Z,19.90
2019-05-03T21:54:50.938Z,36.07
2019-05-03T21:57:25.154Z,35.10
2019-05-03T21:59:56.383Z,39.47
2019-05-03T22:02:28.200Z,31.67
2019-05-03T22:05:00.065Z,30.00
2019-05-03T22:07:31.941Z,28.40
2019-05-03T22:10:05.005Z,32.13
2019-05-03T22:12:37.029Z,28.40
2019-05-03T22:15:16.175Z,32.13
2019-05-03T22:18:04.707Z,40.30
2019-05-03T22:20:55.018Z,33.33
2019-05-03T22:24:04.490Z,32.10
2019-05-03T22:27:00.158Z,49.20
2019-05-03T22:29:32.201Z,38.10
2019-05-03T22:32:05.307Z,31.37
2019-05-03T22:34:37.325Z,22.27
2019-05-03T22:37:09.178Z,16.77
2019-05-03T22:39:41.030Z,13.83
2019-05-03T22:42:14.716Z,12.17
2019-05-03T22:44:46.391Z,11.07
2019-05-03T22:47:18.263Z,15.37
2019-05-03T22:49:50.121Z,12.83
2019-05-03T22:52:21.995Z,17.53
2019-05-03T22:54:55.496Z,15.03
2019-05-03T22:57:27.640Z,15.63
2019-05-03T22:59:59.487Z,16.97
2019-05-03T23:02:31.340Z,14.20
2019-05-03T23:05:04.676Z,15.03
2019-05-03T23:07:37.491Z,19.60
2019-05-03T23:10:10.509Z,7.70
2019-05-03T23:12:42.379Z,13.73
2019-05-03T23:15:15.082Z,8.93
2019-05-03T23:17:46.977Z,19.43
2019-05-03T23:20:30.787Z,13.57
2019-05-03T23:23:02.841Z,17.07
2019-05-03T23:25:35.635Z,31.57
2019-05-03T23:28:07.566Z,28.00
2019-05-03T23:30:39.419Z,20.33
2019-05-03T23:33:11.351Z,32.53
2019-05-03T23:35:44.379Z,38.03
2019-05-03T23:38:16.667Z,36.53
2019-05-03T23:40:48.535Z,33.30
2019-05-03T23:43:20.350Z,30.57
2019-05-03T23:45:52.219Z,34.23
2019-05-03T23:48:25.349Z,19.47
2019-05-03T23:50:57.196Z,29.07
2019-05-03T23:53:29.072Z,32.20
2019-05-03T23:56:10.604Z,25.20
2019-05-03T23:58:44.553Z,27.93
